createdAt,value
2018-06-20T00:00:52.001Z,6.30
2018-06-20T00:01:49.069Z,5.80
2018-06-20T00:03:09.678Z,5.70
2018-06-20T00:04:10.572Z,6.00
2018-06-20T00:04:49.569Z,6.30
2018-06-20T00:05:49.572Z,5.70
2018-06-20T00:06:50.070Z,6.10
2018-06-20T00:07:50.069Z,5.50
2018-06-20T00:08:50.066Z,6.50
2018-06-20T00:09:50.067Z,6.20
2018-06-20T00:10:50.603Z,6.20
2018-06-20T00:12:11.569Z,5.70
2018-06-20T00:12:50.569Z,6.00
2018-06-20T00:13:50.572Z,6.10
2018-06-20T00:15:12.069Z,6.20
2018-06-20T00:15:51.069Z,6.30
2018-06-20T00:16:51.072Z,6.30
2018-06-20T00:17:51.069Z,6.20
2018-06-20T00:18:51.567Z,6.30
2018-06-20T00:19:50.819Z,5.90
2018-06-20T00:20:51.568Z,6.40
2018-06-20T00:21:51.568Z,6.30
2018-06-20T00:23:13.067Z,6.20
2018-06-20T00:25:23.440Z,6.30
2018-06-20T00:26:23.448Z,5.90
2018-06-20T00:27:23.449Z,5.90
2018-06-20T00:28:23.046Z,5.90
2018-06-20T00:29:45.913Z,5.90
2018-06-20T00:30:25.952Z,5.80
2018-06-20T00:31:23.947Z,5.60
2018-06-20T00:32:24.448Z,5.90
2018-06-20T00:34:58.316Z,5.90
2018-06-20T00:35:56.324Z,6.20
2018-06-20T00:36:56.323Z,5.60
2018-06-20T00:39:34.068Z,6.30
2018-06-20T00:40:30.080Z,6.00
2018-06-20T00:41:28.079Z,6.30
2018-06-20T00:43:59.841Z,5.50
2018-06-20T00:44:59.847Z,5.80
2018-06-20T00:45:59.850Z,5.70
2018-06-20T00:48:32.547Z,5.90
2018-06-20T00:49:31.613Z,6.40
2018-06-20T00:50:53.614Z,6.10
2018-06-20T00:51:32.115Z,6.30
2018-06-20T00:52:53.115Z,6.30
2018-06-20T00:53:32.120Z,6.20
2018-06-20T00:54:32.126Z,6.50
2018-06-20T00:55:33.547Z,5.90
2018-06-20T00:56:32.627Z,5.90
2018-06-20T00:57:32.616Z,6.10
2018-06-20T00:58:32.616Z,6.30
2018-06-20T00:59:33.126Z,6.20
2018-06-20T01:00:54.118Z,6.20
2018-06-20T01:01:39.115Z,5.90
2018-06-20T01:02:54.115Z,6.50
2018-06-20T01:03:33.622Z,6.20
2018-06-20T01:04:33.615Z,6.50
2018-06-20T01:05:32.986Z,6.40
2018-06-20T01:06:33.616Z,5.80
2018-06-20T01:07:34.116Z,6.10
2018-06-20T01:08:35.584Z,6.50
2018-06-20T01:09:34.116Z,6.40
2018-06-20T01:10:34.119Z,5.80
2018-06-20T01:11:34.637Z,6.30
2018-06-20T01:12:34.615Z,5.90
2018-06-20T01:13:33.965Z,6.10
2018-06-20T01:14:34.622Z,6.30
2018-06-20T01:15:37.116Z,6.20
2018-06-20T01:16:35.117Z,6.10
2018-06-20T01:17:34.467Z,6.00
2018-06-20T01:18:35.115Z,6.60
2018-06-20T01:19:35.619Z,6.40
2018-06-20T01:20:35.615Z,6.60
2018-06-20T01:21:35.612Z,6.20
2018-06-20T01:22:35.615Z,6.20
2018-06-20T01:25:09.368Z,6.20
2018-06-20T01:26:07.376Z,6.20
2018-06-20T01:27:07.375Z,6.00
2018-06-20T01:28:21.875Z,6.30
2018-06-20T01:30:39.242Z,6.10
2018-06-20T01:31:39.269Z,6.40
2018-06-20T01:32:40.684Z,5.90
2018-06-20T01:33:39.752Z,6.10
2018-06-20T01:34:42.184Z,6.00
2018-06-20T01:35:40.684Z,6.10
2018-06-20T01:36:39.751Z,6.00
2018-06-20T01:38:02.685Z,6.70
2018-06-20T01:38:40.258Z,6.40
2018-06-20T01:39:54.262Z,6.40
2018-06-20T01:40:40.254Z,6.50
2018-06-20T01:41:39.731Z,6.70
2018-06-20T01:42:40.751Z,6.20
2018-06-20T01:43:40.752Z,6.10
2018-06-20T01:44:40.794Z,5.70
2018-06-20T01:46:02.249Z,6.10
2018-06-20T01:46:40.352Z,5.60
2018-06-20T01:47:41.254Z,6.00
2018-06-20T01:48:42.725Z,5.90
2018-06-20T01:49:40.699Z,6.40
2018-06-20T01:50:42.704Z,6.30
2018-06-20T01:53:15.589Z,5.80
2018-06-20T01:54:15.031Z,5.70
2018-06-20T01:55:13.624Z,6.20
2018-06-20T01:56:13.601Z,6.70
2018-06-20T01:57:14.098Z,5.80
2018-06-20T01:58:17.530Z,6.10
2018-06-20T01:59:35.098Z,5.50
2018-06-20T02:00:13.575Z,6.20
2018-06-20T02:01:38.031Z,6.20
2018-06-20T02:03:45.924Z,6.10
2018-06-20T02:04:45.937Z,6.50
2018-06-20T02:05:45.930Z,5.80
2018-06-20T02:06:46.430Z,6.40
2018-06-20T02:08:09.430Z,6.60
2018-06-20T02:08:46.427Z,6.20
2018-06-20T02:09:53.362Z,5.70
2018-06-20T02:11:09.370Z,6.00
2018-06-20T02:11:46.109Z,6.40
2018-06-20T02:12:50.362Z,6.70
2018-06-20T02:13:48.864Z,6.20
2018-06-20T02:14:46.936Z,6.30
2018-06-20T02:15:46.938Z,6.10
2018-06-20T02:16:46.536Z,6.30
2018-06-20T02:19:18.816Z,6.80
2018-06-20T02:20:20.286Z,6.10
2018-06-20T02:21:18.821Z,6.10
2018-06-20T02:22:39.397Z,6.60
2018-06-20T02:23:18.529Z,6.50
2018-06-20T02:24:40.321Z,6.30
2018-06-20T02:25:19.325Z,7.00
2018-06-20T02:26:39.772Z,5.90
2018-06-20T02:28:50.302Z,5.50
2018-06-20T02:29:51.032Z,6.30
2018-06-20T02:30:51.043Z,5.80
2018-06-20T02:33:22.051Z,6.70
2018-06-20T02:34:22.806Z,6.20
2018-06-20T02:35:22.801Z,6.10
2018-06-20T02:36:24.233Z,5.40
2018-06-20T02:37:23.301Z,5.40
2018-06-20T02:38:22.649Z,6.10
2018-06-20T02:39:23.299Z,6.60
2018-06-20T02:40:23.808Z,6.40
2018-06-20T02:42:56.633Z,6.00
2018-06-20T02:43:55.174Z,6.20
2018-06-20T02:45:09.679Z,6.50
2018-06-20T02:47:27.078Z,6.60
2018-06-20T02:48:27.085Z,6.50
2018-06-20T02:49:27.084Z,6.10
2018-06-20T02:50:27.585Z,6.80
2018-06-20T02:51:27.588Z,5.90
2018-06-20T02:52:27.582Z,5.80
2018-06-20T02:53:27.585Z,6.30
2018-06-20T02:54:30.518Z,5.60
2018-06-20T02:55:27.278Z,5.80
2018-06-20T02:56:49.085Z,5.80
2018-06-20T02:57:27.514Z,5.50
2018-06-20T02:58:28.585Z,6.00
2018-06-20T03:02:31.252Z,5.90
2018-06-20T03:03:31.257Z,6.10
2018-06-20T03:04:31.257Z,5.80
2018-06-20T03:05:31.806Z,5.60
2018-06-20T03:06:31.758Z,5.70
2018-06-20T03:07:31.697Z,5.80
2018-06-20T03:08:56.690Z,5.60
2018-06-20T03:09:34.266Z,6.60
2018-06-20T03:10:56.689Z,7.00
2018-06-20T03:11:46.253Z,6.70
2018-06-20T03:12:32.255Z,6.50
2018-06-20T03:15:10.028Z,6.20
2018-06-20T03:16:04.028Z,5.90
2018-06-20T03:17:04.028Z,6.20
2018-06-20T03:18:18.577Z,6.00
2018-06-20T03:19:04.529Z,6.40
2018-06-20T03:20:24.728Z,6.90
2018-06-20T03:21:06.529Z,5.80
2018-06-20T03:22:07.460Z,5.90
2018-06-20T03:23:04.529Z,5.80
2018-06-20T03:25:36.319Z,6.20
2018-06-20T03:26:36.325Z,5.60
2018-06-20T03:27:36.330Z,5.80
2018-06-20T03:28:36.822Z,5.90
2018-06-20T03:29:37.820Z,5.90
2018-06-20T03:30:59.258Z,6.00
2018-06-20T03:31:36.833Z,6.20
2018-06-20T03:32:37.323Z,5.70
2018-06-20T03:33:37.323Z,5.70
2018-06-20T03:34:37.323Z,5.60
2018-06-20T03:35:37.322Z,5.50
2018-06-20T03:36:37.826Z,5.50
2018-06-20T03:37:37.842Z,6.30
2018-06-20T03:38:37.824Z,6.90
2018-06-20T03:39:37.877Z,6.90
2018-06-20T03:40:38.333Z,6.50
2018-06-20T03:41:40.358Z,6.00
2018-06-20T03:42:38.385Z,6.20
2018-06-20T03:43:39.254Z,5.70
2018-06-20T03:44:44.322Z,5.40
2018-06-20T03:47:10.092Z,6.40
2018-06-20T03:48:10.099Z,6.30
2018-06-20T03:49:10.099Z,6.10
2018-06-20T03:50:09.696Z,5.70
2018-06-20T03:52:41.960Z,6.10
2018-06-20T03:53:41.966Z,6.00
2018-06-20T03:54:41.967Z,6.10
2018-06-20T03:55:56.467Z,5.80
2018-06-20T03:56:42.476Z,5.60
2018-06-20T03:58:03.473Z,5.60
2018-06-20T03:58:42.467Z,5.40
2018-06-20T04:00:06.952Z,5.60
2018-06-20T04:00:43.031Z,6.70
2018-06-20T04:01:42.966Z,5.80
2018-06-20T04:02:42.967Z,6.00
2018-06-20T04:03:42.966Z,5.70
2018-06-20T04:05:04.467Z,5.70
2018-06-20T04:05:43.465Z,5.50
2018-06-20T04:06:43.473Z,5.80
2018-06-20T04:07:43.476Z,5.70
2018-06-20T04:08:43.967Z,5.70
2018-06-20T04:09:43.966Z,5.70
2018-06-20T04:10:43.975Z,5.80
2018-06-20T04:11:44.965Z,5.70
2018-06-20T04:12:44.521Z,5.90
2018-06-20T04:13:44.469Z,6.20
2018-06-20T04:14:44.467Z,6.00
2018-06-20T04:15:44.467Z,5.70
2018-06-20T04:17:07.965Z,5.60
2018-06-20T04:17:45.968Z,5.70
2018-06-20T04:18:44.969Z,5.50
2018-06-20T04:19:44.966Z,5.90
2018-06-20T04:22:17.680Z,6.00
2018-06-20T04:23:16.029Z,6.20
2018-06-20T04:24:16.156Z,6.10
2018-06-20T04:25:39.650Z,6.20
2018-06-20T04:28:08.873Z,6.20
2018-06-20T04:28:49.977Z,5.80
2018-06-20T04:29:54.602Z,6.50
2018-06-20T04:30:48.078Z,6.10
2018-06-20T04:31:49.995Z,6.30
2018-06-20T04:33:09.198Z,5.80
2018-06-20T04:33:49.050Z,5.70
2018-06-20T04:34:49.296Z,6.30
2018-06-20T04:35:49.043Z,5.80
2018-06-20T04:36:49.546Z,6.20
2018-06-20T04:37:49.541Z,5.80
2018-06-20T04:38:49.542Z,5.70
2018-06-20T04:39:49.540Z,6.10
2018-06-20T04:40:50.043Z,6.10
2018-06-20T04:41:50.092Z,6.10
2018-06-20T04:42:50.089Z,5.90
2018-06-20T04:43:50.050Z,6.00
2018-06-20T04:46:43.285Z,6.30
2018-06-20T04:47:22.292Z,5.70
2018-06-20T04:48:22.292Z,5.60
2018-06-20T04:49:24.795Z,6.10
2018-06-20T04:50:42.998Z,6.40
2018-06-20T04:52:54.271Z,6.50
2018-06-20T04:54:15.277Z,6.30
2018-06-20T04:54:54.279Z,6.10
2018-06-20T04:55:56.788Z,6.30
2018-06-20T04:56:54.083Z,6.10
2018-06-20T04:58:08.786Z,6.20
2018-06-20T04:59:15.798Z,6.30
2018-06-20T05:00:09.301Z,6.30
2018-06-20T05:00:57.277Z,6.90
2018-06-20T05:02:01.288Z,5.50
2018-06-20T05:02:55.276Z,6.90
2018-06-20T05:05:27.031Z,6.80
2018-06-20T05:06:26.506Z,6.90
2018-06-20T05:07:27.539Z,6.60
2018-06-20T05:08:26.759Z,7.30
2018-06-20T05:09:27.540Z,6.70
2018-06-20T05:10:27.539Z,7.30
2018-06-20T05:12:59.786Z,7.20
2018-06-20T05:13:59.793Z,7.30
2018-06-20T05:14:59.793Z,7.80
2018-06-20T05:15:59.808Z,6.90
2018-06-20T05:18:52.560Z,7.60
2018-06-20T05:19:31.569Z,7.10
2018-06-20T05:20:31.574Z,7.30
2018-06-20T05:21:53.997Z,7.40
2018-06-20T05:22:35.010Z,8.20
2018-06-20T05:23:53.065Z,7.50
2018-06-20T05:24:32.069Z,8.30
2018-06-20T05:25:53.561Z,8.10
2018-06-20T05:26:47.520Z,8.70
2018-06-20T05:27:33.564Z,8.20
2018-06-20T05:28:32.565Z,8.00
2018-06-20T05:29:33.068Z,8.40
2018-06-20T05:33:35.874Z,9.10
2018-06-20T05:34:35.881Z,8.60
2018-06-20T05:35:37.315Z,8.60
2018-06-20T05:36:36.381Z,8.50
2018-06-20T05:39:09.221Z,8.70
2018-06-20T05:40:07.802Z,9.10
2018-06-20T05:41:07.768Z,9.90
2018-06-20T05:42:29.278Z,9.30
2018-06-20T05:43:07.506Z,9.20
2018-06-20T05:44:08.269Z,9.10
2018-06-20T05:45:09.200Z,9.40
2018-06-20T05:46:29.768Z,10.20
2018-06-20T05:47:09.201Z,9.00
2018-06-20T05:48:08.769Z,9.70
2018-06-20T05:49:08.798Z,10.10
2018-06-20T05:50:09.269Z,10.40
2018-06-20T05:51:16.703Z,9.80
2018-06-20T05:52:09.267Z,11.00
2018-06-20T05:53:09.302Z,10.30
2018-06-20T05:55:41.025Z,10.40
2018-06-20T05:56:42.016Z,10.00
2018-06-20T05:57:41.028Z,10.40
2018-06-20T05:58:42.029Z,10.80
2018-06-20T05:59:40.618Z,11.70
2018-06-20T06:00:40.717Z,10.90
2018-06-20T06:02:41.537Z,10.50
2018-06-20T06:03:41.003Z,10.80
2018-06-20T06:06:13.253Z,11.00
2018-06-20T06:07:12.600Z,10.40
2018-06-20T06:08:13.252Z,10.20
2018-06-20T06:09:33.834Z,9.40
2018-06-20T06:11:45.092Z,9.70
2018-06-20T06:12:44.444Z,9.40
2018-06-20T06:13:45.102Z,8.80
2018-06-20T06:14:47.600Z,9.60
2018-06-20T06:17:37.983Z,9.80
2018-06-20T06:18:16.353Z,9.70
2018-06-20T06:19:16.473Z,9.60
2018-06-20T06:22:09.712Z,8.60
2018-06-20T06:23:09.047Z,9.30
2018-06-20T06:24:09.719Z,10.10
2018-06-20T06:25:11.698Z,8.40
2018-06-20T06:27:41.436Z,9.20
2018-06-20T06:28:22.441Z,9.20
2018-06-20T06:29:41.444Z,9.20
2018-06-20T06:30:42.062Z,9.40
2018-06-20T06:31:34.943Z,9.50
2018-06-20T06:32:41.955Z,9.60
2018-06-20T06:33:20.948Z,9.90
2018-06-20T06:34:23.448Z,9.70
2018-06-20T06:35:20.687Z,9.00
2018-06-20T06:36:20.810Z,9.80
2018-06-20T06:37:21.444Z,10.70
2018-06-20T06:38:21.955Z,10.10
2018-06-20T06:39:21.947Z,10.50
2018-06-20T06:40:21.943Z,9.20
2018-06-20T06:41:21.453Z,9.20
2018-06-20T06:44:00.232Z,9.90
2018-06-20T06:45:17.226Z,9.50
2018-06-20T06:46:00.228Z,9.60
2018-06-20T06:47:15.220Z,9.70
2018-06-20T06:49:25.991Z,10.00
2018-06-20T06:50:48.987Z,9.30
2018-06-20T06:51:32.021Z,8.90
2018-06-20T06:52:46.601Z,9.00
2018-06-20T06:54:59.296Z,9.40
2018-06-20T06:57:51.363Z,8.80
2018-06-20T06:58:29.372Z,10.80
2018-06-20T06:59:29.372Z,9.70
2018-06-20T07:02:01.165Z,9.40
2018-06-20T07:03:01.133Z,9.10
2018-06-20T07:04:01.133Z,9.80
2018-06-20T07:08:04.329Z,8.10
2018-06-20T07:12:28.267Z,8.40
2018-06-20T07:13:09.284Z,9.00
2018-06-20T07:15:44.938Z,7.90
2018-06-20T07:16:38.904Z,8.40
2018-06-20T07:17:40.906Z,8.40
2018-06-20T07:18:41.404Z,8.50
2018-06-20T07:20:04.337Z,8.20
2018-06-20T07:20:39.403Z,7.70
2018-06-20T07:22:00.408Z,7.20
2018-06-20T07:23:02.905Z,7.20
2018-06-20T07:25:11.310Z,6.90
2018-06-20T07:27:11.324Z,8.40
2018-06-20T07:29:43.083Z,9.20
2018-06-20T07:30:42.440Z,8.50
2018-06-20T07:31:42.548Z,8.70
2018-06-20T07:33:03.640Z,8.00
2018-06-20T07:33:45.586Z,8.10
2018-06-20T07:36:15.113Z,7.80
2018-06-20T07:37:15.015Z,7.40
2018-06-20T07:38:36.013Z,7.90
2018-06-20T07:42:18.228Z,7.20
2018-06-20T07:43:18.235Z,7.40
2018-06-20T07:44:18.235Z,6.80
2018-06-20T07:45:32.730Z,7.80
2018-06-20T07:46:39.735Z,7.60
2018-06-20T07:47:24.739Z,7.80
2018-06-20T07:48:18.227Z,7.20
2018-06-20T07:50:49.842Z,7.10
2018-06-20T07:51:50.487Z,7.60
2018-06-20T07:52:50.487Z,7.10
2018-06-20T07:53:52.992Z,7.20
2018-06-20T07:57:54.604Z,7.60
2018-06-20T08:02:24.572Z,6.60
2018-06-20T08:02:57.579Z,6.40
2018-06-20T08:04:06.054Z,6.00
2018-06-20T08:04:59.538Z,6.20
2018-06-20T08:05:58.097Z,6.30
2018-06-20T08:06:57.554Z,6.00
2018-06-20T08:07:57.667Z,6.00
2018-06-20T08:09:21.577Z,6.20
2018-06-20T08:09:58.583Z,5.70
2018-06-20T08:10:58.580Z,5.40
2018-06-20T08:11:59.140Z,5.40
2018-06-20T08:12:58.235Z,5.60
2018-06-20T08:13:59.081Z,5.90
2018-06-20T08:15:06.078Z,6.90
2018-06-20T08:16:21.078Z,6.20
2018-06-20T08:16:58.681Z,6.40
2018-06-20T08:18:22.580Z,6.00
2018-06-20T08:19:20.578Z,5.20
2018-06-20T08:19:59.580Z,4.80
2018-06-20T08:21:20.170Z,4.50
2018-06-20T08:22:00.082Z,4.60
2018-06-20T08:23:02.513Z,4.90
2018-06-20T08:24:00.082Z,5.30
2018-06-20T08:25:20.694Z,4.90
2018-06-20T08:26:00.581Z,4.70
2018-06-20T08:27:00.586Z,4.90
2018-06-20T08:28:00.059Z,4.50
2018-06-20T08:29:22.086Z,4.20
2018-06-20T08:30:15.081Z,4.40
2018-06-20T08:31:03.083Z,4.00
2018-06-20T08:32:01.086Z,3.70
2018-06-20T08:33:01.581Z,3.80
2018-06-20T08:35:32.966Z,2.80
2018-06-20T08:36:32.343Z,3.30
2018-06-20T08:37:53.975Z,3.30
2018-06-20T08:38:33.474Z,3.00
2018-06-20T08:41:06.322Z,2.90
2018-06-20T08:42:04.863Z,3.10
2018-06-20T08:43:04.353Z,2.90
2018-06-20T08:47:10.030Z,3.50
2018-06-20T08:48:08.076Z,3.20
2018-06-20T08:49:07.625Z,3.50
2018-06-20T08:50:10.566Z,3.20
2018-06-20T08:51:08.565Z,3.30
2018-06-20T08:52:08.565Z,3.00
2018-06-20T08:53:09.126Z,3.20
2018-06-20T08:54:23.066Z,3.20
2018-06-20T08:56:40.461Z,3.00
2018-06-20T08:59:17.974Z,3.40
2018-06-20T09:02:04.490Z,3.20
2018-06-20T09:02:57.494Z,3.80
2018-06-20T09:03:43.490Z,3.60
2018-06-20T09:04:43.164Z,3.30
2018-06-20T09:05:49.994Z,3.20
2018-06-20T09:07:09.423Z,3.60
2018-06-20T09:08:06.960Z,3.10
2018-06-20T09:08:46.540Z,3.70
2018-06-20T09:13:10.339Z,3.90
2018-06-20T09:13:48.340Z,4.00
2018-06-20T09:14:46.847Z,4.10
2018-06-20T09:16:08.844Z,4.50
2018-06-20T09:16:55.284Z,4.50
2018-06-20T09:17:47.849Z,4.00
2018-06-20T09:18:47.338Z,4.50
2018-06-20T09:20:09.348Z,4.60
2018-06-20T09:20:48.342Z,5.00
2018-06-20T09:21:48.352Z,4.50
2018-06-20T09:22:48.351Z,4.70
2018-06-20T09:23:48.845Z,4.70
2018-06-20T09:24:48.076Z,5.10
2018-06-20T09:27:26.368Z,4.90
2018-06-20T09:28:20.375Z,4.90
2018-06-20T09:29:26.370Z,4.60
2018-06-20T09:30:47.869Z,4.50
2018-06-20T09:31:20.871Z,4.50
2018-06-20T09:32:22.863Z,4.80
2018-06-20T09:33:20.355Z,4.70
2018-06-20T09:34:21.428Z,4.50
2018-06-20T09:37:14.266Z,4.60
2018-06-20T09:37:53.281Z,4.70
2018-06-20T09:40:45.810Z,4.80
2018-06-20T09:41:52.740Z,5.30
2018-06-20T09:42:27.312Z,5.20
2018-06-20T09:43:48.309Z,5.00
2018-06-20T09:44:31.312Z,5.00
2018-06-20T09:45:25.314Z,4.60
2018-06-20T09:46:25.317Z,4.70
2018-06-20T09:47:49.741Z,4.40
2018-06-20T09:48:48.810Z,5.00
2018-06-20T09:49:27.809Z,5.00
2018-06-20T09:50:25.812Z,5.10
2018-06-20T09:51:26.311Z,4.80
2018-06-20T09:52:50.809Z,7.80
2018-06-20T09:53:26.312Z,5.20
2018-06-20T09:54:27.742Z,5.10
2018-06-20T09:55:25.904Z,4.80
2018-06-20T09:56:47.045Z,4.80
2018-06-20T09:57:26.810Z,5.30
2018-06-20T09:58:26.197Z,5.10
2018-06-20T09:59:26.810Z,5.20
2018-06-20T10:00:33.372Z,5.30
2018-06-20T10:01:48.747Z,5.30
2018-06-20T10:02:47.601Z,5.10
2018-06-20T10:03:27.309Z,5.00
2018-06-20T10:04:26.792Z,5.60
2018-06-20T10:05:26.901Z,5.80
2018-06-20T10:06:27.061Z,5.40
2018-06-20T10:07:29.814Z,5.40
2018-06-20T10:08:27.180Z,5.30
2018-06-20T10:09:34.310Z,5.40
2018-06-20T10:10:33.243Z,5.30
2018-06-20T10:11:28.311Z,5.00
2018-06-20T10:12:32.244Z,5.20
2018-06-20T10:13:28.311Z,5.30
2018-06-20T10:14:28.811Z,5.50
2018-06-20T10:15:28.808Z,4.70
2018-06-20T10:16:30.818Z,4.80
2018-06-20T10:17:28.816Z,5.50
2018-06-20T10:18:56.311Z,4.90
2018-06-20T10:19:30.751Z,5.60
2018-06-20T10:20:29.321Z,5.50
2018-06-20T10:21:29.375Z,6.00
2018-06-20T10:22:30.744Z,5.40
2018-06-20T10:23:30.743Z,5.30
2018-06-20T10:24:31.267Z,5.60
2018-06-20T10:25:29.130Z,4.70
2018-06-20T10:26:29.811Z,5.60
2018-06-20T10:27:29.813Z,5.50
2018-06-20T10:28:30.347Z,5.60
2018-06-20T10:29:30.313Z,5.70
2018-06-20T10:30:36.312Z,5.50
2018-06-20T10:31:29.811Z,5.60
2018-06-20T10:32:30.811Z,5.60
2018-06-20T10:33:51.817Z,5.70
2018-06-20T10:36:04.337Z,5.90
2018-06-20T10:37:02.343Z,6.20
2018-06-20T10:38:25.346Z,6.00
2018-06-20T10:39:01.949Z,5.80
2018-06-20T10:40:08.843Z,5.60
2018-06-20T10:41:25.298Z,5.70
2018-06-20T10:42:04.275Z,6.00
2018-06-20T10:43:10.782Z,5.80
2018-06-20T10:44:30.346Z,5.80
2018-06-20T10:45:09.362Z,6.80
2018-06-20T10:46:05.381Z,5.80
2018-06-20T10:47:24.342Z,8.80
2018-06-20T10:48:09.849Z,6.40
2018-06-20T10:49:17.877Z,5.90
2018-06-20T10:50:09.844Z,6.10
2018-06-20T10:51:03.850Z,6.30
2018-06-20T10:58:58.505Z,6.30
2018-06-20T10:59:37.476Z,6.00
2018-06-20T11:00:58.477Z,5.80
2018-06-20T11:01:37.083Z,6.20
2018-06-20T11:02:37.970Z,5.90
2018-06-20T11:03:37.969Z,5.90
2018-06-20T11:04:37.970Z,6.10
2018-06-20T11:07:29.995Z,7.70
2018-06-20T11:08:09.125Z,6.70
2018-06-20T11:09:09.733Z,6.50
2018-06-20T11:10:14.172Z,6.00
2018-06-20T11:11:11.672Z,6.10
2018-06-20T11:12:10.248Z,6.20
2018-06-20T11:13:09.737Z,5.90
2018-06-20T11:14:10.740Z,8.70
2018-06-20T11:15:12.741Z,8.60
2018-06-20T11:16:10.740Z,7.80
2018-06-20T11:18:42.887Z,6.70
2018-06-20T11:19:42.895Z,6.70
2018-06-20T11:20:42.895Z,6.70
2018-06-20T11:21:57.397Z,7.20
2018-06-20T11:22:57.402Z,8.00
2018-06-20T11:23:43.395Z,6.20
2018-06-20T11:24:43.394Z,6.00
2018-06-20T11:28:46.923Z,6.50
2018-06-20T11:29:46.923Z,6.60
2018-06-20T11:30:47.427Z,6.10
2018-06-20T11:31:46.532Z,6.60
2018-06-20T11:32:47.427Z,6.60
2018-06-20T11:35:18.938Z,6.30
2018-06-20T11:36:18.952Z,6.40
2018-06-20T11:37:18.952Z,6.40
2018-06-20T11:38:18.571Z,6.70
2018-06-20T11:40:50.844Z,7.00
2018-06-20T11:41:50.851Z,6.80
2018-06-20T11:42:50.851Z,6.60
2018-06-20T11:44:11.447Z,6.60
2018-06-20T11:45:12.366Z,6.90
2018-06-20T11:45:51.357Z,6.50
2018-06-20T11:46:52.285Z,6.80
2018-06-20T11:47:51.851Z,7.00
2018-06-20T11:48:51.855Z,6.80
2018-06-20T11:49:51.875Z,6.40
2018-06-20T11:50:51.209Z,6.60
2018-06-20T11:51:51.851Z,6.70
2018-06-20T11:52:55.284Z,7.30
2018-06-20T11:53:52.352Z,6.70
2018-06-20T11:54:52.352Z,7.20
2018-06-20T11:55:52.370Z,6.50
2018-06-20T11:58:24.120Z,7.20
2018-06-20T11:59:23.483Z,7.00
2018-06-20T12:00:24.129Z,6.90
2018-06-20T12:01:46.115Z,6.60
2018-06-20T12:02:29.564Z,6.80
2018-06-20T12:03:24.626Z,7.50
2018-06-20T12:07:28.053Z,7.70
2018-06-20T12:08:28.994Z,7.70
2018-06-20T12:09:28.059Z,7.20
2018-06-20T12:10:28.053Z,7.60
2018-06-20T12:11:30.556Z,7.80
2018-06-20T12:12:49.554Z,7.50
2018-06-20T12:13:28.557Z,7.80
2018-06-20T12:14:50.056Z,7.70
2018-06-20T12:17:22.262Z,7.80
2018-06-20T12:18:14.330Z,8.00
2018-06-20T12:19:01.291Z,7.60
2018-06-20T12:20:01.829Z,6.70
2018-06-20T12:24:05.643Z,7.10
2018-06-20T12:25:09.683Z,7.30
2018-06-20T12:26:03.681Z,6.90
2018-06-20T12:27:04.177Z,7.30
2018-06-20T12:28:05.632Z,7.40
2018-06-20T12:29:25.278Z,6.90
2018-06-20T12:30:06.178Z,6.20
2018-06-20T12:32:36.448Z,6.40
2018-06-20T12:33:37.410Z,6.90
2018-06-20T12:36:29.076Z,6.80
2018-06-20T12:37:07.410Z,6.20
2018-06-20T12:38:29.058Z,6.70
2018-06-20T12:39:07.674Z,7.10
2018-06-20T12:41:39.939Z,6.80
2018-06-20T12:42:41.397Z,6.60
2018-06-20T12:44:01.955Z,6.70
2018-06-20T12:44:39.433Z,6.30
2018-06-20T12:46:01.443Z,6.00
2018-06-20T12:46:46.444Z,5.90
2018-06-20T12:47:40.445Z,6.10
2018-06-20T12:48:40.448Z,6.40
2018-06-20T12:51:12.202Z,6.10
2018-06-20T12:52:12.212Z,6.20
2018-06-20T12:53:33.212Z,6.80
2018-06-20T12:55:44.485Z,6.00
2018-06-20T12:56:45.952Z,6.70
2018-06-20T12:57:44.485Z,6.70
2018-06-20T12:58:46.984Z,6.20
2018-06-20T12:59:44.990Z,6.60
2018-06-20T13:02:37.523Z,5.70
2018-06-20T13:03:15.873Z,6.00
2018-06-20T13:04:16.520Z,6.00
2018-06-20T13:05:19.027Z,6.00
2018-06-20T13:06:40.023Z,5.70
2018-06-20T13:08:48.552Z,5.80
2018-06-20T13:09:48.559Z,6.10
2018-06-20T13:10:48.556Z,5.90
2018-06-20T13:11:50.059Z,5.20
2018-06-20T13:12:49.081Z,4.90
2018-06-20T13:13:49.056Z,4.80
2018-06-20T13:15:09.548Z,5.20
2018-06-20T13:16:03.556Z,5.10
2018-06-20T13:16:49.554Z,4.80
2018-06-20T13:18:10.561Z,5.00
2018-06-20T13:19:10.586Z,5.10
2018-06-20T13:19:52.060Z,4.90
2018-06-20T13:22:23.483Z,4.50
2018-06-20T13:23:20.835Z,5.00
2018-06-20T13:24:21.529Z,4.40
2018-06-20T13:25:42.990Z,4.20
2018-06-20T13:26:43.020Z,4.60
2018-06-20T13:27:42.989Z,4.40
2018-06-20T13:28:42.985Z,4.50
2018-06-20T13:29:22.052Z,4.20
2018-06-20T13:31:53.797Z,3.80
2018-06-20T13:32:53.712Z,4.10
2018-06-20T13:33:53.713Z,4.10
2018-06-20T13:34:54.213Z,4.10
2018-06-20T13:36:08.232Z,3.80
2018-06-20T13:36:54.213Z,3.90
2018-06-20T13:38:15.211Z,3.70
2018-06-20T13:40:25.996Z,3.70
2018-06-20T13:41:25.999Z,3.30
2018-06-20T13:42:47.002Z,3.60
2018-06-20T13:43:26.506Z,3.60
2018-06-20T13:47:28.606Z,3.30
2018-06-20T13:48:29.345Z,3.10
2018-06-20T13:49:29.345Z,2.80
2018-06-20T13:50:50.845Z,3.00
2018-06-20T13:51:29.844Z,2.60
2018-06-20T13:52:29.207Z,2.80
2018-06-20T13:53:29.377Z,2.70
2018-06-20T13:56:01.694Z,2.70
2018-06-20T13:57:01.723Z,2.80
2018-06-20T13:58:01.688Z,2.60
2018-06-20T13:59:23.208Z,2.90
2018-06-20T14:00:04.726Z,2.70
2018-06-20T14:07:07.377Z,2.60
2018-06-20T14:08:07.500Z,2.70
2018-06-20T14:09:08.118Z,2.90
2018-06-20T14:10:11.040Z,3.10
2018-06-20T14:11:29.607Z,2.60
2018-06-20T14:12:08.609Z,2.60
2018-06-20T14:13:08.095Z,3.00
2018-06-20T14:14:11.110Z,2.90
2018-06-20T14:16:40.528Z,2.40
2018-06-20T14:19:12.037Z,2.80
2018-06-20T14:20:12.044Z,3.00
2018-06-20T14:21:12.045Z,2.80
2018-06-20T14:22:11.688Z,2.70
2018-06-20T14:23:12.551Z,2.50
2018-06-20T14:24:12.545Z,2.70
2018-06-20T14:25:18.549Z,2.60
2018-06-20T14:26:13.058Z,2.50
2018-06-20T14:27:13.054Z,2.50
2018-06-20T14:28:13.046Z,2.80
2018-06-20T14:29:13.046Z,2.80
2018-06-20T14:30:13.546Z,2.50
2018-06-20T14:31:13.545Z,2.00
2018-06-20T14:32:34.548Z,1.90
2018-06-20T14:33:15.978Z,2.30
2018-06-20T14:34:13.169Z,2.40
2018-06-20T14:35:14.097Z,2.40
2018-06-20T14:36:41.047Z,2.30
2018-06-20T14:37:13.542Z,2.10
2018-06-20T14:38:14.546Z,2.10
2018-06-20T14:39:14.547Z,2.00
2018-06-20T14:40:15.479Z,2.40
2018-06-20T14:41:14.026Z,2.00
2018-06-20T14:43:46.800Z,2.30
2018-06-20T14:44:47.766Z,2.10
2018-06-20T14:47:23.918Z,2.00
2018-06-20T14:48:17.283Z,2.10
2018-06-20T14:49:39.862Z,2.50
2018-06-20T14:52:10.718Z,2.30
2018-06-20T14:52:49.732Z,2.10
2018-06-20T14:53:49.742Z,2.20
2018-06-20T14:54:49.356Z,2.30
2018-06-20T14:56:11.232Z,2.20
2018-06-20T14:56:51.664Z,2.30
2018-06-20T14:58:11.232Z,2.20
2018-06-20T14:58:49.845Z,2.40
2018-06-20T14:59:50.689Z,2.20
2018-06-20T15:01:11.131Z,2.00
2018-06-20T15:01:50.732Z,2.20
2018-06-20T15:04:36.517Z,2.10
2018-06-20T15:05:24.526Z,1.90
2018-06-20T15:06:43.520Z,2.20
2018-06-20T15:09:14.556Z,2.40
2018-06-20T15:09:54.304Z,2.30
2018-06-20T15:10:54.305Z,2.10
2018-06-20T15:11:54.805Z,2.20
2018-06-20T15:14:26.276Z,2.00
2018-06-20T15:15:26.220Z,2.00
2018-06-20T15:16:29.152Z,2.00
2018-06-20T15:17:28.177Z,2.30
2018-06-20T15:18:46.892Z,2.00
2018-06-20T15:19:28.152Z,2.00
2018-06-20T15:20:26.718Z,2.20
2018-06-20T15:22:58.364Z,2.00
2018-06-20T15:25:29.899Z,2.30
2018-06-20T15:26:29.899Z,2.20
2018-06-20T15:27:29.891Z,2.10
2018-06-20T15:28:44.390Z,1.90
2018-06-20T15:29:51.390Z,2.40
2018-06-20T15:30:36.391Z,2.20
2018-06-20T15:31:30.391Z,2.00
2018-06-20T15:32:32.891Z,2.40
2018-06-20T15:36:35.255Z,2.40
2018-06-20T15:37:33.790Z,2.30
2018-06-20T15:38:55.293Z,2.10
2018-06-20T15:39:34.292Z,1.90
2018-06-20T15:40:35.220Z,2.00
2018-06-20T15:41:34.288Z,2.30
2018-06-20T15:42:40.789Z,1.90
2018-06-20T15:43:36.220Z,2.10
2018-06-20T15:44:34.840Z,1.90
2018-06-20T15:45:34.789Z,2.30
2018-06-20T15:48:05.845Z,2.00
2018-06-20T15:49:08.576Z,2.00
2018-06-20T15:50:27.576Z,2.00
2018-06-20T15:52:40.299Z,2.20
2018-06-20T15:53:37.750Z,2.40
2018-06-20T15:54:38.364Z,2.10
2018-06-20T15:57:31.148Z,2.40
2018-06-20T15:58:09.511Z,2.20
2018-06-20T15:59:24.159Z,2.30
2018-06-20T16:01:41.940Z,2.30
2018-06-20T16:03:02.945Z,2.30
2018-06-20T16:03:41.944Z,2.20
2018-06-20T16:06:13.731Z,2.10
2018-06-20T16:07:13.727Z,2.40
2018-06-20T16:08:13.736Z,2.10
2018-06-20T16:09:16.229Z,2.30
2018-06-20T16:11:45.691Z,2.20
2018-06-20T16:12:47.575Z,2.20
2018-06-20T16:13:45.640Z,2.10
2018-06-20T16:14:48.140Z,2.50
2018-06-20T16:16:07.614Z,2.20
2018-06-20T16:16:48.575Z,2.20
2018-06-20T16:17:46.139Z,1.90
2018-06-20T16:20:17.915Z,2.30
2018-06-20T16:21:17.928Z,2.20
2018-06-20T16:22:38.922Z,2.30
2018-06-20T16:24:49.726Z,2.00
2018-06-20T16:25:49.729Z,2.30
2018-06-20T16:26:49.730Z,2.50
2018-06-20T16:29:35.506Z,2.20